createdAt,value
2022-10-22T00:01:32.780Z,24.70
2022-10-22T00:04:07.071Z,27.70
2022-10-22T00:06:41.187Z,25.00
2022-10-22T00:09:15.470Z,22.90
2022-10-22T00:11:49.139Z,23.42
2022-10-22T00:14:22.881Z,29.05
2022-10-22T00:17:00.949Z,26.15
2022-10-22T00:19:34.680Z,27.25
2022-10-22T00:22:09.952Z,27.15
2022-10-22T00:24:43.888Z,24.45
2022-10-22T00:27:17.386Z,26.90
2022-10-22T00:29:51.097Z,27.73
2022-10-22T00:32:26.006Z,28.75
2022-10-22T00:34:59.678Z,28.60
2022-10-22T00:37:33.198Z,23.27
2022-10-22T00:40:07.853Z,24.15
2022-10-22T00:42:41.607Z,29.48
2022-10-22T00:45:21.175Z,24.13
2022-10-22T00:48:00.102Z,22.67
2022-10-22T00:50:36.796Z,22.50
2022-10-22T00:53:15.411Z,21.58
2022-10-22T00:55:53.153Z,21.77
2022-10-22T00:58:29.071Z,22.67
2022-10-22T01:01:03.590Z,23.42
2022-10-22T01:03:38.547Z,22.95
2022-10-22T01:06:16.126Z,23.00
2022-10-22T01:08:59.079Z,29.38
2022-10-22T01:11:39.042Z,23.02
2022-10-22T01:14:20.849Z,25.10
2022-10-22T01:17:01.450Z,25.42
2022-10-22T01:19:55.959Z,24.40
2022-10-22T01:22:34.304Z,30.65
2022-10-22T01:25:12.767Z,27.67
2022-10-22T01:27:56.749Z,21.52
2022-10-22T01:30:31.995Z,23.85
2022-10-22T01:33:10.379Z,23.02
2022-10-22T01:35:46.224Z,27.98
2022-10-22T01:38:23.218Z,31.73
2022-10-22T01:40:57.630Z,26.02
2022-10-22T01:43:31.418Z,29.52
2022-10-22T01:46:07.866Z,33.47
2022-10-22T01:48:52.356Z,24.70
2022-10-22T01:51:40.082Z,26.58
2022-10-22T01:54:26.974Z,27.27
2022-10-22T01:57:09.895Z,26.98
2022-10-22T01:59:53.753Z,27.02
2022-10-22T02:02:38.462Z,26.00
2022-10-22T02:05:18.898Z,26.73
2022-10-22T02:07:56.331Z,26.73
2022-10-22T02:10:31.605Z,26.30
2022-10-22T02:13:06.329Z,26.05
2022-10-22T02:15:42.784Z,26.85
2022-10-22T02:18:21.070Z,25.98
2022-10-22T02:20:56.008Z,29.35
2022-10-22T02:23:29.977Z,28.50
2022-10-22T02:26:10.467Z,25.23
2022-10-22T02:28:53.178Z,28.08
2022-10-22T02:31:30.778Z,31.80
2022-10-22T02:34:11.658Z,30.73
2022-10-22T02:36:50.315Z,27.17
2022-10-22T02:39:24.362Z,34.60
2022-10-22T02:41:58.172Z,32.25
2022-10-22T02:44:31.730Z,30.42
2022-10-22T02:47:06.003Z,30.38
2022-10-22T02:49:40.786Z,28.60
2022-10-22T02:52:14.665Z,31.48
2022-10-22T02:54:48.274Z,32.72
2022-10-22T03:00:00.408Z,32.75
2022-10-22T03:02:34.176Z,26.15
2022-10-22T03:05:10.196Z,27.70
2022-10-22T03:07:44.053Z,30.17
2022-10-22T03:10:17.647Z,29.50
2022-10-22T03:12:51.350Z,38.63
2022-10-22T03:15:24.986Z,33.22
2022-10-22T03:17:58.755Z,30.80
2022-10-22T03:20:33.747Z,31.48
2022-10-22T03:23:07.536Z,26.10
2022-10-22T03:25:44.144Z,29.98
2022-10-22T03:28:19.498Z,25.95
2022-10-22T03:30:53.030Z,26.60
2022-10-22T03:33:26.800Z,26.52
2022-10-22T03:36:01.928Z,26.42
2022-10-22T03:38:36.694Z,29.30
2022-10-22T03:41:11.047Z,31.65
2022-10-22T03:43:49.573Z,34.08
2022-10-22T03:46:23.156Z,30.77
2022-10-22T03:48:56.896Z,27.50
2022-10-22T03:51:31.783Z,25.75
2022-10-22T03:54:05.827Z,28.60
2022-10-22T03:56:39.461Z,30.15
2022-10-22T03:59:13.400Z,27.38
2022-10-22T04:01:47.009Z,33.30
2022-10-22T04:04:20.682Z,25.50
2022-10-22T04:06:55.668Z,35.13
2022-10-22T04:09:32.188Z,26.38
2022-10-22T04:12:07.864Z,26.48
2022-10-22T04:14:41.593Z,34.25
2022-10-22T04:17:16.188Z,23.98
2022-10-22T04:19:49.997Z,25.45
2022-10-22T04:22:24.846Z,30.88
2022-10-22T04:24:58.589Z,27.75
2022-10-22T04:27:32.848Z,28.92
2022-10-22T04:30:08.008Z,24.70
2022-10-22T04:32:41.686Z,27.85
2022-10-22T04:35:15.711Z,27.55
2022-10-22T04:37:50.677Z,26.42
2022-10-22T04:40:24.355Z,23.50
2022-10-22T04:42:58.010Z,33.13
2022-10-22T04:45:31.790Z,27.63
2022-10-22T04:48:05.592Z,24.00
2022-10-22T04:50:39.239Z,31.50
2022-10-22T04:53:14.208Z,23.02
2022-10-22T04:55:47.823Z,25.42
2022-10-22T04:58:21.584Z,27.73
2022-10-22T05:00:55.330Z,26.73
2022-10-22T05:03:28.906Z,25.42
2022-10-22T05:06:03.235Z,23.50
2022-10-22T05:08:38.495Z,23.80
2022-10-22T05:11:13.995Z,30.52
2022-10-22T05:13:47.813Z,27.25
2022-10-22T05:16:21.540Z,27.48
2022-10-22T05:18:55.030Z,28.00
2022-10-22T05:21:29.659Z,29.35
2022-10-22T05:24:04.731Z,29.58
2022-10-22T05:26:38.551Z,32.00
2022-10-22T05:29:12.033Z,40.22
2022-10-22T05:31:45.801Z,54.58
2022-10-22T05:34:19.317Z,86.63
2022-10-22T05:36:53.035Z,104.45
2022-10-22T05:39:27.996Z,93.93
2022-10-22T05:42:01.706Z,125.40
2022-10-22T05:44:35.363Z,89.18
2022-10-22T05:47:10.022Z,199.50
2022-10-22T05:49:43.539Z,110.95
2022-10-22T05:52:17.319Z,170.80
2022-10-22T05:54:52.192Z,96.78
2022-10-22T05:57:25.850Z,160.27
2022-10-22T05:59:59.312Z,143.98
2022-10-22T06:02:33.019Z,76.28
2022-10-22T06:05:06.774Z,103.22
2022-10-22T06:07:40.595Z,98.40
2022-10-22T06:10:19.330Z,163.35
2022-10-22T06:15:26.675Z,172.88
2022-10-22T06:18:00.691Z,223.75
2022-10-22T06:20:35.551Z,216.00
2022-10-22T06:23:09.281Z,205.77
2022-10-22T06:25:44.342Z,291.23
2022-10-22T06:28:18.093Z,288.95
2022-10-22T06:30:51.528Z,170.00
2022-10-22T06:33:25.372Z,111.70
2022-10-22T06:36:07.674Z,128.23
2022-10-22T06:38:42.510Z,159.43
2022-10-22T06:41:18.167Z,118.55
2022-10-22T06:43:51.980Z,119.10
2022-10-22T06:46:26.359Z,81.75
2022-10-22T06:49:02.549Z,88.00
2022-10-22T06:51:36.052Z,91.38
2022-10-22T06:54:10.401Z,75.60
2022-10-22T06:56:45.602Z,66.75
2022-10-22T06:59:19.433Z,52.53
2022-10-22T07:01:53.002Z,40.60
2022-10-22T07:04:26.882Z,36.90
2022-10-22T07:07:00.372Z,39.85
2022-10-22T07:09:34.106Z,43.58
2022-10-22T07:12:09.166Z,43.55
2022-10-22T07:14:43.384Z,28.88
2022-10-22T07:17:16.938Z,28.95
2022-10-22T07:19:51.357Z,27.85
2022-10-22T07:22:25.764Z,36.85
2022-10-22T07:25:02.534Z,30.42
2022-10-22T07:27:39.219Z,29.63
2022-10-22T07:30:13.738Z,33.72
2022-10-22T07:32:47.374Z,33.40
2022-10-22T07:35:21.375Z,38.17
2022-10-22T07:37:55.071Z,32.33
2022-10-22T07:40:28.886Z,33.08
2022-10-22T07:43:03.820Z,30.80
2022-10-22T07:45:37.579Z,31.88
2022-10-22T07:48:11.339Z,35.63
2022-10-22T07:50:45.265Z,34.60
2022-10-22T07:53:19.431Z,35.03
2022-10-22T07:55:53.520Z,34.15
2022-10-22T07:58:28.534Z,44.42
2022-10-22T08:01:05.917Z,35.00
2022-10-22T08:03:39.488Z,30.60
2022-10-22T08:06:15.016Z,32.55
2022-10-22T08:08:48.681Z,33.03
2022-10-22T08:11:22.489Z,34.05
2022-10-22T08:13:57.300Z,30.38
2022-10-22T08:16:31.418Z,30.83
2022-10-22T08:19:05.048Z,32.67
2022-10-22T08:21:39.214Z,29.38
2022-10-22T08:24:12.987Z,31.20
2022-10-22T08:26:46.776Z,28.77
2022-10-22T08:29:22.792Z,28.33
2022-10-22T08:31:56.860Z,26.45
2022-10-22T08:34:30.910Z,24.15
2022-10-22T08:37:05.571Z,25.02
2022-10-22T08:39:39.100Z,21.63
2022-10-22T08:42:33.185Z,24.63
2022-10-22T08:45:14.882Z,29.40
2022-10-22T08:48:05.215Z,28.20
2022-10-22T08:50:41.930Z,31.27
2022-10-22T08:53:19.507Z,22.83
2022-10-22T08:55:54.926Z,23.92
2022-10-22T08:58:41.205Z,21.00
2022-10-22T09:01:20.890Z,24.35
2022-10-22T09:03:59.980Z,22.05
2022-10-22T09:06:44.246Z,25.65
2022-10-22T09:09:19.508Z,22.20
2022-10-22T09:11:54.444Z,24.80
2022-10-22T09:14:29.872Z,25.67
2022-10-22T09:17:26.929Z,16.15
2022-10-22T09:20:09.415Z,22.08
2022-10-22T09:22:47.454Z,18.95
2022-10-22T09:25:24.120Z,21.05
2022-10-22T09:27:59.264Z,18.02
2022-10-22T09:30:37.849Z,16.98
2022-10-22T09:33:19.182Z,14.38
2022-10-22T09:35:58.071Z,21.20
2022-10-22T09:38:34.176Z,17.00
2022-10-22T09:41:09.961Z,19.30
2022-10-22T09:43:43.425Z,19.38
2022-10-22T09:46:23.339Z,17.52
2022-10-22T09:49:20.999Z,14.30
2022-10-22T09:51:57.344Z,14.63
2022-10-22T09:54:41.547Z,18.75
2022-10-22T09:57:17.788Z,14.73
2022-10-22T09:59:57.403Z,16.48
2022-10-22T10:02:38.519Z,16.48
2022-10-22T10:05:26.277Z,14.65
2022-10-22T10:08:01.968Z,12.23
2022-10-22T10:10:42.998Z,16.13
2022-10-22T10:13:33.673Z,10.52
2022-10-22T10:16:14.572Z,12.75
2022-10-22T10:19:04.421Z,14.65
2022-10-22T10:21:49.922Z,15.25
2022-10-22T10:24:34.387Z,14.40
2022-10-22T10:27:17.007Z,14.65
2022-10-22T10:29:55.861Z,13.10
2022-10-22T10:32:52.847Z,12.15
2022-10-22T10:35:29.623Z,16.05
2022-10-22T10:38:22.620Z,14.48
2022-10-22T10:41:05.152Z,10.90
2022-10-22T10:43:48.340Z,14.25
2022-10-22T10:46:36.251Z,13.25
2022-10-22T10:49:17.787Z,14.80
2022-10-22T10:52:02.558Z,14.45
2022-10-22T10:54:45.722Z,13.30
2022-10-22T10:57:29.081Z,13.25
2022-10-22T11:00:10.239Z,10.70
2022-10-22T11:03:14.509Z,12.93
2022-10-22T11:05:54.094Z,10.80
2022-10-22T11:08:31.074Z,11.75
2022-10-22T11:11:13.419Z,6.82
2022-10-22T11:13:53.797Z,14.75
2022-10-22T11:16:36.648Z,11.90
2022-10-22T11:19:39.607Z,12.77
2022-10-22T11:22:26.603Z,10.25
2022-10-22T11:25:06.818Z,10.10
2022-10-22T11:27:47.445Z,11.50
2022-10-22T11:30:23.275Z,9.85
2022-10-22T11:33:01.465Z,11.90
2022-10-22T11:35:39.856Z,6.20
2022-10-22T11:38:17.139Z,9.63
2022-10-22T11:40:57.409Z,9.35
2022-10-22T11:43:36.260Z,12.02
2022-10-22T11:46:28.288Z,9.48
2022-10-22T11:49:05.400Z,10.57
2022-10-22T11:51:40.985Z,12.85
2022-10-22T11:54:42.491Z,10.05
2022-10-22T11:57:27.095Z,7.03
2022-10-22T12:00:02.201Z,10.40
2022-10-22T12:02:45.001Z,8.77
2022-10-22T12:05:40.390Z,14.95
2022-10-22T12:08:21.842Z,13.95
2022-10-22T12:11:05.126Z,16.17
2022-10-22T12:14:00.195Z,10.13
2022-10-22T12:16:57.330Z,9.93
2022-10-22T12:19:33.885Z,7.30
2022-10-22T12:22:16.273Z,7.60
2022-10-22T12:24:53.831Z,10.90
2022-10-22T12:27:30.036Z,7.88
2022-10-22T12:30:19.495Z,7.57
2022-10-22T12:35:30.873Z,6.07
2022-10-22T12:38:13.797Z,8.40
2022-10-22T12:40:49.230Z,4.53
2022-10-22T12:43:27.214Z,8.10
2022-10-22T12:46:01.181Z,7.55
2022-10-22T12:48:41.242Z,9.05
2022-10-22T12:51:19.433Z,11.88
2022-10-22T12:53:55.373Z,10.57
2022-10-22T12:56:33.035Z,8.45
2022-10-22T12:59:13.525Z,8.65
2022-10-22T13:01:49.287Z,11.93
2022-10-22T13:04:35.202Z,12.00
2022-10-22T13:07:22.135Z,9.07
2022-10-22T13:10:00.504Z,8.63
2022-10-22T13:12:37.677Z,11.52
2022-10-22T13:15:23.701Z,13.10
2022-10-22T13:18:03.588Z,8.98
2022-10-22T13:20:51.782Z,7.28
2022-10-22T13:23:28.006Z,10.05
2022-10-22T13:26:03.819Z,8.63
2022-10-22T13:28:37.678Z,22.75
2022-10-22T13:31:16.798Z,10.23
2022-10-22T13:33:57.025Z,9.77
2022-10-22T13:36:31.897Z,9.52
2022-10-22T13:39:08.129Z,8.02
2022-10-22T13:41:41.862Z,12.70
2022-10-22T13:44:15.593Z,11.23
2022-10-22T13:46:49.920Z,7.82
2022-10-22T13:49:23.838Z,14.05
2022-10-22T13:52:00.989Z,16.75
2022-10-22T13:54:34.964Z,9.93
2022-10-22T13:57:10.348Z,8.85
2022-10-22T13:59:44.311Z,9.18
2022-10-22T14:02:19.841Z,7.22
2022-10-22T14:04:53.657Z,8.13
2022-10-22T14:07:28.701Z,9.25
2022-10-22T14:10:02.659Z,8.95
2022-10-22T14:12:36.235Z,8.60
2022-10-22T14:15:12.660Z,11.10
2022-10-22T14:17:49.524Z,8.45
2022-10-22T14:20:25.561Z,13.40
2022-10-22T14:23:06.696Z,11.85
2022-10-22T14:25:40.396Z,13.50
2022-10-22T14:28:14.371Z,17.42
2022-10-22T14:30:48.917Z,11.85
2022-10-22T14:33:29.025Z,13.88
2022-10-22T14:36:05.235Z,9.02
2022-10-22T14:38:40.636Z,9.85
2022-10-22T14:41:20.508Z,10.38
2022-10-22T14:43:55.434Z,8.30
2022-10-22T14:46:29.455Z,7.72
2022-10-22T14:49:02.958Z,13.57
2022-10-22T14:51:36.775Z,12.35
2022-10-22T14:54:11.728Z,11.20
2022-10-22T14:56:45.516Z,8.18
2022-10-22T14:59:19.068Z,11.05
2022-10-22T15:01:52.725Z,8.00
2022-10-22T15:04:28.135Z,13.48
2022-10-22T15:07:01.973Z,11.75
2022-10-22T15:09:37.073Z,10.63
2022-10-22T15:12:10.904Z,6.60
2022-10-22T15:14:44.414Z,9.65
2022-10-22T15:17:18.743Z,6.45
2022-10-22T15:19:53.150Z,12.40
2022-10-22T15:22:28.329Z,9.82
2022-10-22T15:25:08.142Z,14.52
2022-10-22T15:27:41.993Z,8.25
2022-10-22T15:30:15.562Z,16.50
2022-10-22T15:32:49.330Z,12.25
2022-10-22T15:35:22.866Z,12.85
2022-10-22T15:37:56.662Z,6.10
2022-10-22T15:40:31.582Z,13.20
2022-10-22T15:43:05.462Z,12.98
2022-10-22T15:45:40.222Z,8.77
2022-10-22T15:48:15.512Z,10.10
2022-10-22T15:50:49.253Z,7.68
2022-10-22T15:53:23.090Z,9.57
2022-10-22T15:55:57.920Z,9.23
2022-10-22T15:58:31.946Z,6.70
2022-10-22T16:01:07.237Z,14.10
2022-10-22T16:03:41.510Z,10.88
2022-10-22T16:06:15.146Z,11.40
2022-10-22T16:08:48.873Z,7.85
2022-10-22T16:11:23.835Z,10.30
2022-10-22T16:13:58.832Z,8.73
2022-10-22T16:16:34.462Z,9.68
2022-10-22T16:19:08.221Z,10.27
2022-10-22T16:21:42.037Z,10.38
2022-10-22T16:24:15.717Z,13.25
2022-10-22T16:26:50.675Z,12.93
2022-10-22T16:29:24.395Z,10.48
2022-10-22T16:31:57.851Z,14.23
2022-10-22T16:34:31.588Z,15.00
2022-10-22T16:37:10.035Z,12.75
2022-10-22T16:39:44.136Z,11.80
2022-10-22T16:42:19.025Z,9.40
2022-10-22T16:44:52.730Z,10.23
2022-10-22T16:47:26.244Z,8.48
2022-10-22T16:50:00.846Z,12.00
2022-10-22T16:52:38.080Z,11.68
2022-10-22T16:55:12.499Z,16.75
2022-10-22T16:57:53.484Z,13.00
2022-10-22T17:00:28.157Z,19.20
2022-10-22T17:03:04.469Z,11.50
2022-10-22T17:05:43.586Z,15.55
2022-10-22T17:10:55.289Z,16.40
2022-10-22T17:13:30.199Z,17.52
2022-10-22T17:16:11.008Z,10.75
2022-10-22T17:18:48.544Z,12.00
2022-10-22T17:21:24.600Z,13.77
2022-10-22T17:24:00.544Z,13.63
2022-10-22T17:26:35.507Z,16.38
2022-10-22T17:29:10.679Z,13.68
2022-10-22T17:31:44.542Z,15.20
2022-10-22T17:34:20.597Z,15.32
2022-10-22T17:37:00.649Z,20.10
2022-10-22T17:39:37.718Z,18.50
2022-10-22T17:42:12.648Z,14.63
2022-10-22T17:44:47.639Z,14.73
2022-10-22T17:47:23.969Z,13.73
2022-10-22T17:49:59.135Z,13.57
2022-10-22T17:52:33.163Z,13.82
2022-10-22T17:55:12.641Z,17.77
2022-10-22T17:57:46.853Z,13.32
2022-10-22T18:00:23.388Z,11.55
2022-10-22T18:02:57.120Z,11.07
2022-10-22T18:05:38.485Z,14.30
2022-10-22T18:08:13.590Z,15.20
2022-10-22T18:10:49.756Z,13.02
2022-10-22T18:13:23.483Z,15.38
2022-10-22T18:16:03.526Z,15.20
2022-10-22T18:18:41.092Z,12.13
2022-10-22T18:21:14.758Z,19.85
2022-10-22T18:23:49.060Z,16.88
2022-10-22T18:26:25.983Z,14.50
2022-10-22T18:29:16.940Z,15.30
2022-10-22T18:31:52.455Z,16.05
2022-10-22T18:34:26.423Z,13.57
2022-10-22T18:37:06.138Z,11.65
2022-10-22T18:39:40.657Z,9.07
2022-10-22T18:42:26.451Z,10.77
2022-10-22T18:45:10.544Z,12.82
2022-10-22T18:47:45.933Z,15.20
2022-10-22T18:50:21.587Z,12.95
2022-10-22T18:52:55.691Z,14.13
2022-10-22T18:55:29.623Z,15.82
2022-10-22T18:58:03.201Z,10.80
2022-10-22T19:00:40.728Z,13.20
2022-10-22T19:03:16.318Z,11.52
2022-10-22T19:05:56.390Z,17.90
2022-10-22T19:08:33.299Z,16.73
2022-10-22T19:11:11.761Z,12.27
2022-10-22T19:13:47.021Z,17.58
2022-10-22T19:16:29.925Z,12.38
2022-10-22T19:19:07.863Z,9.00
2022-10-22T19:21:41.543Z,10.80
2022-10-22T19:24:19.614Z,12.88
2022-10-22T19:26:53.658Z,12.93
2022-10-22T19:29:27.232Z,8.55
2022-10-22T19:32:03.688Z,15.45
2022-10-22T19:34:40.334Z,8.65
2022-10-22T19:37:14.252Z,14.57
2022-10-22T19:39:50.093Z,15.23
2022-10-22T19:42:23.791Z,18.23
2022-10-22T19:45:07.144Z,14.93
2022-10-22T19:47:44.530Z,13.98
2022-10-22T19:50:20.170Z,14.30
2022-10-22T19:52:54.053Z,14.07
2022-10-22T19:55:27.532Z,12.40
2022-10-22T19:58:01.522Z,13.13
2022-10-22T20:00:36.451Z,16.15
2022-10-22T20:03:12.472Z,15.38
2022-10-22T20:05:48.814Z,15.07
2022-10-22T20:08:22.579Z,13.55
2022-10-22T20:10:56.157Z,15.43
2022-10-22T20:13:32.531Z,13.50
2022-10-22T20:16:07.042Z,18.13
2022-10-22T20:18:40.971Z,10.10
2022-10-22T20:21:19.222Z,15.50
2022-10-22T20:23:54.514Z,15.95
2022-10-22T20:26:29.621Z,17.00
2022-10-22T20:29:04.163Z,14.88
2022-10-22T20:31:37.760Z,15.85
2022-10-22T20:34:11.483Z,16.60
2022-10-22T20:36:46.794Z,11.07
2022-10-22T20:39:20.566Z,13.27
2022-10-22T20:41:54.144Z,12.48
2022-10-22T20:44:27.899Z,11.13
2022-10-22T20:47:01.729Z,17.70
2022-10-22T20:49:35.438Z,15.32
2022-10-22T20:52:10.400Z,15.07
2022-10-22T20:54:45.810Z,12.82
2022-10-22T20:57:19.486Z,16.88
2022-10-22T20:59:54.729Z,12.77
2022-10-22T21:02:29.017Z,12.35
2022-10-22T21:05:02.935Z,16.65
2022-10-22T21:07:37.944Z,15.63
2022-10-22T21:10:11.767Z,17.70
2022-10-22T21:12:45.545Z,16.55
2022-10-22T21:15:19.424Z,15.25
2022-10-22T21:17:52.916Z,15.02
2022-10-22T21:20:26.650Z,12.75
2022-10-22T21:23:01.485Z,19.92
2022-10-22T21:25:38.469Z,21.67
2022-10-22T21:28:15.584Z,17.60
2022-10-22T21:30:49.407Z,20.77
2022-10-22T21:33:22.940Z,18.25
2022-10-22T21:35:57.969Z,11.93
2022-10-22T21:38:32.924Z,17.67
2022-10-22T21:41:07.314Z,18.17
2022-10-22T21:43:43.243Z,19.67
2022-10-22T21:46:18.738Z,14.15
2022-10-22T21:48:56.433Z,22.85
2022-10-22T21:51:31.721Z,19.48
2022-10-22T21:54:07.126Z,18.90
2022-10-22T21:56:40.979Z,11.35
2022-10-22T21:59:14.505Z,18.73
2022-10-22T22:01:48.325Z,18.60
2022-10-22T22:04:21.843Z,18.70
2022-10-22T22:06:55.543Z,14.82
2022-10-22T22:09:30.393Z,18.80
2022-10-22T22:12:04.185Z,23.55
2022-10-22T22:14:38.091Z,20.25
2022-10-22T22:17:11.830Z,23.80
2022-10-22T22:19:45.326Z,23.00
2022-10-22T22:22:18.942Z,25.75
2022-10-22T22:24:53.804Z,27.90
2022-10-22T22:27:27.452Z,26.80
2022-10-22T22:30:01.046Z,27.17
2022-10-22T22:32:34.859Z,20.85
2022-10-22T22:35:08.999Z,23.13
2022-10-22T22:37:42.898Z,19.33
2022-10-22T22:40:18.132Z,16.33
2022-10-22T22:42:51.838Z,24.33
2022-10-22T22:45:25.517Z,23.90
2022-10-22T22:47:59.223Z,23.00
2022-10-22T22:50:32.774Z,22.75
2022-10-22T22:53:06.430Z,26.10
2022-10-22T22:55:41.222Z,25.25
2022-10-22T22:58:14.862Z,23.33
2022-10-22T23:00:48.385Z,20.77
2022-10-22T23:03:22.096Z,17.55
2022-10-22T23:05:55.555Z,21.90
2022-10-22T23:08:29.196Z,29.48
2022-10-22T23:11:05.634Z,26.08
2022-10-22T23:13:40.172Z,23.48
2022-10-22T23:16:16.121Z,18.23
2022-10-22T23:18:50.984Z,21.08
2022-10-22T23:21:27.029Z,27.20
2022-10-22T23:24:03.212Z,22.55
2022-10-22T23:26:39.880Z,26.17
2022-10-22T23:29:15.321Z,24.02
2022-10-22T23:31:49.902Z,25.30
2022-10-22T23:34:26.332Z,37.63
2022-10-22T23:37:00.300Z,33.80
2022-10-22T23:39:34.172Z,23.33
2022-10-22T23:42:09.200Z,30.48
2022-10-22T23:44:43.165Z,26.55
2022-10-22T23:47:16.778Z,25.38
2022-10-22T23:49:50.711Z,23.83
2022-10-22T23:52:24.223Z,26.80
2022-10-22T23:54:57.877Z,22.67
2022-10-22T23:57:32.719Z,27.35
